sensor_id;sensor_type;location;lat;lon;timestamp;P1;durP1;ratioP1;P2;durP2;ratioP2
31224;SDS011;17847;31.524;74.366;2023-12-20T00:00:09;103.18;;;68.85;;
31224;SDS011;17847;31.524;74.366;2023-12-20T00:02:39;101.55;;;66.30;;
31224;SDS011;17847;31.524;74.366;2023-12-20T00:05:08;105.68;;;66.57;;
31224;SDS011;17847;31.524;74.366;2023-12-20T00:07:38;99.20;;;66.80;;
31224;SDS011;17847;31.524;74.366;2023-12-20T00:10:08;108.05;;;68.22;;
31224;SDS011;17847;31.524;74.366;2023-12-20T00:12:38;99.88;;;65.93;;
31224;SDS011;17847;31.524;74.366;2023-12-20T00:15:09;105.93;;;68.05;;
31224;SDS011;17847;31.524;74.366;2023-12-20T00:17:39;104.25;;;70.03;;
31224;SDS011;17847;31.524;74.366;2023-12-20T00:20:08;108.03;;;67.80;;
31224;SDS011;17847;31.524;74.366;2023-12-20T00:22:39;101.93;;;69.13;;
31224;SDS011;17847;31.524;74.366;2023-12-20T00:25:08;112.07;;;67.47;;
31224;SDS011;17847;31.524;74.366;2023-12-20T00:27:37;103.57;;;66.90;;
31224;SDS011;17847;31.524;74.366;2023-12-20T00:30:07;101.47;;;67.20;;
31224;SDS011;17847;31.524;74.366;2023-12-20T00:32:38;99.47;;;65.30;;
31224;SDS011;17847;31.524;74.366;2023-12-20T00:35:08;104.93;;;65.95;;
31224;SDS011;17847;31.524;74.366;2023-12-20T00:37:37;94.53;;;65.30;;
31224;SDS011;17847;31.524;74.366;2023-12-20T00:40:07;104.45;;;64.07;;
31224;SDS011;17847;31.524;74.366;2023-12-20T00:42:38;105.95;;;66.72;;
31224;SDS011;17847;31.524;74.366;2023-12-20T00:45:08;103.30;;;64.32;;
31224;SDS011;17847;31.524;74.366;2023-12-20T00:47:37;101.15;;;61.65;;
31224;SDS011;17847;31.524;74.366;2023-12-20T00:50:07;100.07;;;62.35;;
31224;SDS011;17847;31.524;74.366;2023-12-20T00:52:37;103.97;;;63.22;;
31224;SDS011;17847;31.524;74.366;2023-12-20T00:55:06;100.97;;;63.95;;
31224;SDS011;17847;31.524;74.366;2023-12-20T00:57:36;110.28;;;65.13;;
31224;SDS011;17847;31.524;74.366;2023-12-20T01:00:06;94.88;;;65.38;;
31224;SDS011;17847;31.524;74.366;2023-12-20T01:02:38;103.93;;;64.82;;
31224;SDS011;17847;31.524;74.366;2023-12-20T01:05:10;99.63;;;64.93;;
31224;SDS011;17847;31.524;74.366;2023-12-20T01:07:40;107.75;;;66.57;;
31224;SDS011;17847;31.524;74.366;2023-12-20T01:10:11;106.40;;;64.80;;
31224;SDS011;17847;31.524;74.366;2023-12-20T01:12:41;100.55;;;64.13;;
31224;SDS011;17847;31.524;74.366;2023-12-20T01:15:10;100.85;;;68.05;;
31224;SDS011;17847;31.524;74.366;2023-12-20T01:17:40;113.32;;;66.88;;
31224;SDS011;17847;31.524;74.366;2023-12-20T01:20:10;100.70;;;65.43;;
31224;SDS011;17847;31.524;74.366;2023-12-20T01:22:40;101.80;;;62.40;;
31224;SDS011;17847;31.524;74.366;2023-12-20T01:25:11;120.32;;;69.10;;
31224;SDS011;17847;31.524;74.366;2023-12-20T01:27:41;106.00;;;67.80;;
31224;SDS011;17847;31.524;74.366;2023-12-20T01:30:11;103.43;;;63.95;;
31224;SDS011;17847;31.524;74.366;2023-12-20T01:32:41;100.82;;;63.30;;
31224;SDS011;17847;31.524;74.366;2023-12-20T01:35:10;99.65;;;64.03;;
31224;SDS011;17847;31.524;74.366;2023-12-20T01:37:41;107.72;;;63.03;;
31224;SDS011;17847;31.524;74.366;2023-12-20T01:40:11;107.97;;;64.93;;
31224;SDS011;17847;31.524;74.366;2023-12-20T01:42:41;104.93;;;61.78;;
31224;SDS011;17847;31.524;74.366;2023-12-20T01:45:11;98.32;;;63.78;;
31224;SDS011;17847;31.524;74.366;2023-12-20T01:47:40;103.97;;;64.45;;
31224;SDS011;17847;31.524;74.366;2023-12-20T01:50:10;102.63;;;63.10;;
31224;SDS011;17847;31.524;74.366;2023-12-20T01:52:41;104.30;;;63.47;;
31224;SDS011;17847;31.524;74.366;2023-12-20T01:55:12;103.90;;;63.33;;
31224;SDS011;17847;31.524;74.366;2023-12-20T01:57:44;101.25;;;62.42;;
31224;SDS011;17847;31.524;74.366;2023-12-20T02:00:16;95.50;;;63.03;;
31224;SDS011;17847;31.524;74.366;2023-12-20T02:02:47;103.78;;;63.13;;
31224;SDS011;17847;31.524;74.366;2023-12-20T02:05:18;106.00;;;62.88;;
31224;SDS011;17847;31.524;74.366;2023-12-20T02:07:47;96.72;;;61.88;;
31224;SDS011;17847;31.524;74.366;2023-12-20T02:10:17;97.50;;;61.35;;
31224;SDS011;17847;31.524;74.366;2023-12-20T02:12:46;113.70;;;64.15;;
31224;SDS011;17847;31.524;74.366;2023-12-20T02:15:16;108.25;;;64.82;;
31224;SDS011;17847;31.524;74.366;2023-12-20T02:17:46;101.20;;;64.40;;
31224;SDS011;17847;31.524;74.366;2023-12-20T02:20:16;103.50;;;63.22;;
31224;SDS011;17847;31.524;74.366;2023-12-20T02:22:47;97.00;;;63.00;;
31224;SDS011;17847;31.524;74.366;2023-12-20T02:25:17;101.40;;;65.43;;
31224;SDS011;17847;31.524;74.366;2023-12-20T02:27:46;103.55;;;64.65;;
31224;SDS011;17847;31.524;74.366;2023-12-20T02:30:16;104.35;;;64.68;;
31224;SDS011;17847;31.524;74.366;2023-12-20T02:32:46;105.75;;;64.95;;
31224;SDS011;17847;31.524;74.366;2023-12-20T02:35:17;105.32;;;64.18;;
31224;SDS011;17847;31.524;74.366;2023-12-20T02:37:46;98.82;;;62.50;;
31224;SDS011;17847;31.524;74.366;2023-12-20T02:40:15;101.30;;;64.18;;
31224;SDS011;17847;31.524;74.366;2023-12-20T02:42:45;99.40;;;61.72;;
31224;SDS011;17847;31.524;74.366;2023-12-20T02:45:15;104.03;;;63.83;;
31224;SDS011;17847;31.524;74.366;2023-12-20T02:47:44;106.43;;;66.82;;
31224;SDS011;17847;31.524;74.366;2023-12-20T02:50:14;102.88;;;65.00;;
31224;SDS011;17847;31.524;74.366;2023-12-20T02:52:44;105.57;;;65.30;;
31224;SDS011;17847;31.524;74.366;2023-12-20T02:55:14;104.25;;;66.32;;
31224;SDS011;17847;31.524;74.366;2023-12-20T02:57:44;108.70;;;65.57;;
31224;SDS011;17847;31.524;74.366;2023-12-20T03:00:14;106.05;;;65.38;;
31224;SDS011;17847;31.524;74.366;2023-12-20T03:02:43;110.25;;;65.55;;
31224;SDS011;17847;31.524;74.366;2023-12-20T03:05:12;100.63;;;66.10;;
31224;SDS011;17847;31.524;74.366;2023-12-20T03:07:42;95.70;;;63.95;;
31224;SDS011;17847;31.524;74.366;2023-12-20T03:10:12;98.07;;;64.13;;
31224;SDS011;17847;31.524;74.366;2023-12-20T03:12:46;106.40;;;66.20;;
31224;SDS011;17847;31.524;74.366;2023-12-20T03:15:16;103.82;;;63.67;;
31224;SDS011;17847;31.524;74.366;2023-12-20T03:17:45;107.22;;;65.03;;
31224;SDS011;17847;31.524;74.366;2023-12-20T03:20:15;97.25;;;63.95;;
31224;SDS011;17847;31.524;74.366;2023-12-20T03:22:44;100.75;;;63.45;;
31224;SDS011;17847;31.524;74.366;2023-12-20T03:25:14;96.88;;;62.15;;
31224;SDS011;17847;31.524;74.366;2023-12-20T03:27:43;92.22;;;59.42;;
31224;SDS011;17847;31.524;74.366;2023-12-20T03:30:13;88.82;;;60.22;;
31224;SDS011;17847;31.524;74.366;2023-12-20T03:32:43;104.28;;;60.50;;
31224;SDS011;17847;31.524;74.366;2023-12-20T03:35:13;89.85;;;55.50;;
31224;SDS011;17847;31.524;74.366;2023-12-20T03:37:42;101.22;;;58.47;;
31224;SDS011;17847;31.524;74.366;2023-12-20T03:40:12;84.38;;;52.72;;
31224;SDS011;17847;31.524;74.366;2023-12-20T03:42:42;82.97;;;51.92;;
31224;SDS011;17847;31.524;74.366;2023-12-20T03:45:11;78.97;;;52.38;;
31224;SDS011;17847;31.524;74.366;2023-12-20T03:47:41;79.68;;;52.08;;
31224;SDS011;17847;31.524;74.366;2023-12-20T03:50:11;79.40;;;51.70;;
31224;SDS011;17847;31.524;74.366;2023-12-20T03:52:41;75.25;;;50.33;;
31224;SDS011;17847;31.524;74.366;2023-12-20T03:55:10;76.10;;;49.75;;
31224;SDS011;17847;31.524;74.366;2023-12-20T03:57:40;81.60;;;48.35;;
31224;SDS011;17847;31.524;74.366;2023-12-20T04:00:10;74.43;;;50.80;;
31224;SDS011;17847;31.524;74.366;2023-12-20T04:02:41;68.60;;;46.38;;
31224;SDS011;17847;31.524;74.366;2023-12-20T04:05:11;74.72;;;47.60;;
31224;SDS011;17847;31.524;74.366;2023-12-20T04:07:41;70.07;;;46.35;;
31224;SDS011;17847;31.524;74.366;2023-12-20T04:10:11;67.57;;;48.13;;
31224;SDS011;17847;31.524;74.366;2023-12-20T04:12:40;82.55;;;46.88;;
31224;SDS011;17847;31.524;74.366;2023-12-20T04:15:10;71.70;;;46.58;;
31224;SDS011;17847;31.524;74.366;2023-12-20T04:17:40;67.43;;;48.65;;
31224;SDS011;17847;31.524;74.366;2023-12-20T04:20:10;67.88;;;46.63;;
31224;SDS011;17847;31.524;74.366;2023-12-20T04:22:39;73.63;;;48.30;;
31224;SDS011;17847;31.524;74.366;2023-12-20T04:25:10;67.75;;;46.80;;
31224;SDS011;17847;31.524;74.366;2023-12-20T04:27:40;70.30;;;45.15;;
31224;SDS011;17847;31.524;74.366;2023-12-20T04:30:10;67.40;;;42.70;;
31224;SDS011;17847;31.524;74.366;2023-12-20T04:32:40;66.75;;;44.38;;
31224;SDS011;17847;31.524;74.366;2023-12-20T04:35:09;65.30;;;42.80;;
31224;SDS011;17847;31.524;74.366;2023-12-20T04:37:39;73.10;;;46.42;;
31224;SDS011;17847;31.524;74.366;2023-12-20T04:40:10;67.35;;;44.08;;
31224;SDS011;17847;31.524;74.366;2023-12-20T04:42:40;70.00;;;46.25;;
31224;SDS011;17847;31.524;74.366;2023-12-20T04:45:10;66.88;;;45.47;;
31224;SDS011;17847;31.524;74.366;2023-12-20T04:47:41;61.90;;;43.70;;
31224;SDS011;17847;31.524;74.366;2023-12-20T04:50:11;61.22;;;44.17;;
31224;SDS011;17847;31.524;74.366;2023-12-20T04:52:41;65.60;;;45.00;;
31224;SDS011;17847;31.524;74.366;2023-12-20T04:55:11;63.80;;;45.40;;
31224;SDS011;17847;31.524;74.366;2023-12-20T04:57:41;65.72;;;46.28;;
31224;SDS011;17847;31.524;74.366;2023-12-20T05:00:12;67.40;;;44.67;;
31224;SDS011;17847;31.524;74.366;2023-12-20T05:02:43;53.22;;;40.50;;
31224;SDS011;17847;31.524;74.366;2023-12-20T05:05:13;64.20;;;41.65;;
31224;SDS011;17847;31.524;74.366;2023-12-20T05:07:43;67.38;;;42.42;;
31224;SDS011;17847;31.524;74.366;2023-12-20T05:10:13;74.47;;;44.95;;
31224;SDS011;17847;31.524;74.366;2023-12-20T05:12:43;76.55;;;45.25;;
31224;SDS011;17847;31.524;74.366;2023-12-20T05:15:12;69.65;;;47.03;;
31224;SDS011;17847;31.524;74.366;2023-12-20T05:17:42;61.63;;;43.63;;
31224;SDS011;17847;31.524;74.366;2023-12-20T05:20:12;97.07;;;44.42;;
31224;SDS011;17847;31.524;74.366;2023-12-20T05:22:41;59.72;;;42.20;;
31224;SDS011;17847;31.524;74.366;2023-12-20T05:25:10;58.00;;;38.00;;
31224;SDS011;17847;31.524;74.366;2023-12-20T05:27:40;63.20;;;40.13;;
31224;SDS011;17847;31.524;74.366;2023-12-20T05:30:10;58.78;;;38.75;;
31224;SDS011;17847;31.524;74.366;2023-12-20T05:32:40;54.15;;;36.20;;
31224;SDS011;17847;31.524;74.366;2023-12-20T05:35:10;58.00;;;38.65;;
31224;SDS011;17847;31.524;74.366;2023-12-20T05:37:40;53.72;;;40.28;;
31224;SDS011;17847;31.524;74.366;2023-12-20T05:40:10;58.65;;;39.85;;
31224;SDS011;17847;31.524;74.366;2023-12-20T05:42:40;55.22;;;40.35;;
31224;SDS011;17847;31.524;74.366;2023-12-20T05:45:09;65.60;;;40.10;;
31224;SDS011;17847;31.524;74.366;2023-12-20T05:47:39;64.68;;;41.58;;
31224;SDS011;17847;31.524;74.366;2023-12-20T05:50:09;62.67;;;40.95;;
31224;SDS011;17847;31.524;74.366;2023-12-20T05:52:38;58.72;;;40.70;;
31224;SDS011;17847;31.524;74.366;2023-12-20T05:55:07;73.78;;;43.42;;
31224;SDS011;17847;31.524;74.366;2023-12-20T05:57:37;73.05;;;42.92;;
31224;SDS011;17847;31.524;74.366;2023-12-20T06:00:07;62.25;;;39.72;;
31224;SDS011;17847;31.524;74.366;2023-12-20T06:02:40;55.38;;;38.20;;
31224;SDS011;17847;31.524;74.366;2023-12-20T06:05:10;72.57;;;41.30;;
31224;SDS011;17847;31.524;74.366;2023-12-20T06:07:40;60.33;;;38.75;;
31224;SDS011;17847;31.524;74.366;2023-12-20T06:10:10;51.25;;;37.55;;
31224;SDS011;17847;31.524;74.366;2023-12-20T06:12:40;56.85;;;36.40;;
31224;SDS011;17847;31.524;74.366;2023-12-20T06:15:10;51.15;;;35.55;;
31224;SDS011;17847;31.524;74.366;2023-12-20T06:17:39;59.40;;;34.10;;
31224;SDS011;17847;31.524;74.366;2023-12-20T06:20:09;51.20;;;35.53;;
31224;SDS011;17847;31.524;74.366;2023-12-20T06:22:39;60.13;;;36.15;;
31224;SDS011;17847;31.524;74.366;2023-12-20T06:25:09;55.80;;;36.00;;
31224;SDS011;17847;31.524;74.366;2023-12-20T06:27:38;63.63;;;40.63;;
31224;SDS011;17847;31.524;74.366;2023-12-20T06:30:09;63.88;;;41.58;;
31224;SDS011;17847;31.524;74.366;2023-12-20T06:32:39;65.70;;;39.65;;
31224;SDS011;17847;31.524;74.366;2023-12-20T06:35:10;58.03;;;40.03;;
31224;SDS011;17847;31.524;74.366;2023-12-20T06:37:40;60.38;;;41.35;;
31224;SDS011;17847;31.524;74.366;2023-12-20T06:40:11;61.15;;;40.80;;
31224;SDS011;17847;31.524;74.366;2023-12-20T06:42:44;62.80;;;39.03;;
31224;SDS011;17847;31.524;74.366;2023-12-20T06:45:25;68.20;;;44.78;;
31224;SDS011;17847;31.524;74.366;2023-12-20T06:47:55;74.20;;;46.97;;
31224;SDS011;17847;31.524;74.366;2023-12-20T06:50:27;63.60;;;48.08;;
31224;SDS011;17847;31.524;74.366;2023-12-20T06:52:57;82.40;;;49.38;;
31224;SDS011;17847;31.524;74.366;2023-12-20T06:55:27;67.43;;;48.72;;
31224;SDS011;17847;31.524;74.366;2023-12-20T06:57:58;68.20;;;45.78;;
31224;SDS011;17847;31.524;74.366;2023-12-20T07:00:27;66.57;;;43.13;;
31224;SDS011;17847;31.524;74.366;2023-12-20T07:02:57;65.57;;;42.85;;
31224;SDS011;17847;31.524;74.366;2023-12-20T07:05:26;66.47;;;44.63;;
31224;SDS011;17847;31.524;74.366;2023-12-20T07:07:56;66.40;;;45.08;;
31224;SDS011;17847;31.524;74.366;2023-12-20T07:10:26;64.18;;;47.08;;
31224;SDS011;17847;31.524;74.366;2023-12-20T07:12:55;71.80;;;45.35;;
31224;SDS011;17847;31.524;74.366;2023-12-20T07:15:25;79.15;;;48.00;;
31224;SDS011;17847;31.524;74.366;2023-12-20T07:17:55;84.28;;;49.10;;
31224;SDS011;17847;31.524;74.366;2023-12-20T07:20:26;75.88;;;48.15;;
31224;SDS011;17847;31.524;74.366;2023-12-20T07:22:55;71.00;;;47.92;;
31224;SDS011;17847;31.524;74.366;2023-12-20T07:25:25;72.30;;;48.28;;
31224;SDS011;17847;31.524;74.366;2023-12-20T07:27:55;78.28;;;47.45;;
31224;SDS011;17847;31.524;74.366;2023-12-20T07:30:25;79.28;;;47.38;;
31224;SDS011;17847;31.524;74.366;2023-12-20T07:32:54;78.10;;;50.85;;
31224;SDS011;17847;31.524;74.366;2023-12-20T07:35:25;79.80;;;51.85;;
31224;SDS011;17847;31.524;74.366;2023-12-20T07:37:54;80.97;;;50.85;;
31224;SDS011;17847;31.524;74.366;2023-12-20T07:40:23;71.38;;;49.58;;
31224;SDS011;17847;31.524;74.366;2023-12-20T07:42:53;80.30;;;49.95;;
31224;SDS011;17847;31.524;74.366;2023-12-20T07:45:22;76.05;;;50.33;;
31224;SDS011;17847;31.524;74.366;2023-12-20T07:47:52;76.65;;;50.80;;
31224;SDS011;17847;31.524;74.366;2023-12-20T07:50:22;72.72;;;49.45;;
31224;SDS011;17847;31.524;74.366;2023-12-20T07:52:51;93.65;;;53.22;;
31224;SDS011;17847;31.524;74.366;2023-12-20T07:55:21;88.43;;;52.40;;
31224;SDS011;17847;31.524;74.366;2023-12-20T07:57:51;80.55;;;51.90;;
31224;SDS011;17847;31.524;74.366;2023-12-20T08:00:20;73.55;;;51.28;;
31224;SDS011;17847;31.524;74.366;2023-12-20T08:02:50;76.22;;;51.95;;
31224;SDS011;17847;31.524;74.366;2023-12-20T08:05:19;68.63;;;49.20;;
31224;SDS011;17847;31.524;74.366;2023-12-20T08:07:48;71.60;;;51.35;;
31224;SDS011;17847;31.524;74.366;2023-12-20T08:10:18;83.53;;;52.33;;
31224;SDS011;17847;31.524;74.366;2023-12-20T08:12:48;75.90;;;49.30;;
31224;SDS011;17847;31.524;74.366;2023-12-20T08:15:17;77.70;;;48.85;;
31224;SDS011;17847;31.524;74.366;2023-12-20T08:17:46;72.07;;;49.35;;
31224;SDS011;17847;31.524;74.366;2023-12-20T08:20:16;83.70;;;47.83;;
31224;SDS011;17847;31.524;74.366;2023-12-20T08:22:52;64.68;;;41.45;;
31224;SDS011;17847;31.524;74.366;2023-12-20T08:25:22;61.67;;;38.92;;
31224;SDS011;17847;31.524;74.366;2023-12-20T08:27:51;55.65;;;33.95;;
31224;SDS011;17847;31.524;74.366;2023-12-20T08:30:21;48.22;;;31.95;;
31224;SDS011;17847;31.524;74.366;2023-12-20T08:32:51;52.65;;;32.67;;
31224;SDS011;17847;31.524;74.366;2023-12-20T08:35:21;56.28;;;31.98;;
31224;SDS011;17847;31.524;74.366;2023-12-20T08:37:50;43.75;;;30.05;;
31224;SDS011;17847;31.524;74.366;2023-12-20T08:40:22;48.90;;;30.67;;
31224;SDS011;17847;31.524;74.366;2023-12-20T08:42:52;52.03;;;30.95;;
31224;SDS011;17847;31.524;74.366;2023-12-20T08:45:23;47.95;;;30.67;;
31224;SDS011;17847;31.524;74.366;2023-12-20T08:47:53;50.40;;;29.80;;
31224;SDS011;17847;31.524;74.366;2023-12-20T08:50:25;55.80;;;31.48;;
31224;SDS011;17847;31.524;74.366;2023-12-20T08:52:55;51.00;;;29.75;;
31224;SDS011;17847;31.524;74.366;2023-12-20T08:55:25;48.45;;;30.73;;
31224;SDS011;17847;31.524;74.366;2023-12-20T08:57:57;48.85;;;33.92;;
31224;SDS011;17847;31.524;74.366;2023-12-20T09:00:26;56.38;;;35.60;;
31224;SDS011;17847;31.524;74.366;2023-12-20T09:02:56;57.28;;;34.22;;
31224;SDS011;17847;31.524;74.366;2023-12-20T09:05:25;53.65;;;35.88;;
31224;SDS011;17847;31.524;74.366;2023-12-20T09:07:55;64.35;;;35.85;;
31224;SDS011;17847;31.524;74.366;2023-12-20T09:10:25;51.63;;;34.10;;
31224;SDS011;17847;31.524;74.366;2023-12-20T09:12:54;52.92;;;33.25;;
31224;SDS011;17847;31.524;74.366;2023-12-20T09:15:26;58.78;;;33.72;;
31224;SDS011;17847;31.524;74.366;2023-12-20T09:17:56;60.05;;;35.30;;
31224;SDS011;17847;31.524;74.366;2023-12-20T09:20:27;58.65;;;34.05;;
31224;SDS011;17847;31.524;74.366;2023-12-20T09:22:57;56.95;;;35.03;;
31224;SDS011;17847;31.524;74.366;2023-12-20T09:25:27;67.68;;;35.42;;
31224;SDS011;17847;31.524;74.366;2023-12-20T09:27:58;55.28;;;35.63;;
31224;SDS011;17847;31.524;74.366;2023-12-20T09:30:28;59.83;;;36.95;;
31224;SDS011;17847;31.524;74.366;2023-12-20T09:32:57;62.67;;;37.38;;
31224;SDS011;17847;31.524;74.366;2023-12-20T09:35:27;60.30;;;36.92;;
31224;SDS011;17847;31.524;74.366;2023-12-20T09:37:57;54.08;;;32.53;;
31224;SDS011;17847;31.524;74.366;2023-12-20T09:40:27;54.47;;;32.83;;
31224;SDS011;17847;31.524;74.366;2023-12-20T09:42:59;49.03;;;31.38;;
31224;SDS011;17847;31.524;74.366;2023-12-20T09:45:31;53.00;;;31.58;;
31224;SDS011;17847;31.524;74.366;2023-12-20T09:48:01;62.92;;;35.67;;
31224;SDS011;17847;31.524;74.366;2023-12-20T09:50:32;64.28;;;36.30;;
31224;SDS011;17847;31.524;74.366;2023-12-20T09:53:02;57.70;;;32.80;;
31224;SDS011;17847;31.524;74.366;2023-12-20T09:55:37;54.88;;;31.50;;
31224;SDS011;17847;31.524;74.366;2023-12-20T09:58:08;51.63;;;30.85;;
31224;SDS011;17847;31.524;74.366;2023-12-20T10:00:37;46.15;;;29.77;;
31224;SDS011;17847;31.524;74.366;2023-12-20T10:03:07;39.50;;;27.25;;
31224;SDS011;17847;31.524;74.366;2023-12-20T10:05:38;54.63;;;28.20;;
31224;SDS011;17847;31.524;74.366;2023-12-20T10:08:12;60.92;;;31.58;;
31224;SDS011;17847;31.524;74.366;2023-12-20T10:10:41;44.53;;;28.70;;
31224;SDS011;17847;31.524;74.366;2023-12-20T10:13:14;44.80;;;27.27;;
31224;SDS011;17847;31.524;74.366;2023-12-20T10:15:44;52.13;;;27.77;;
31224;SDS011;17847;31.524;74.366;2023-12-20T10:18:14;44.70;;;29.25;;
31224;SDS011;17847;31.524;74.366;2023-12-20T10:20:45;47.25;;;27.08;;
31224;SDS011;17847;31.524;74.366;2023-12-20T10:23:15;42.65;;;26.90;;
31224;SDS011;17847;31.524;74.366;2023-12-20T10:25:55;50.78;;;27.77;;
31224;SDS011;17847;31.524;74.366;2023-12-20T10:28:32;49.10;;;27.70;;
31224;SDS011;17847;31.524;74.366;2023-12-20T10:31:03;45.90;;;28.15;;
31224;SDS011;17847;31.524;74.366;2023-12-20T10:33:32;49.60;;;27.80;;
31224;SDS011;17847;31.524;74.366;2023-12-20T10:36:02;51.75;;;27.88;;
31224;SDS011;17847;31.524;74.366;2023-12-20T10:38:33;47.95;;;27.20;;
31224;SDS011;17847;31.524;74.366;2023-12-20T10:41:04;49.70;;;26.75;;
31224;SDS011;17847;31.524;74.366;2023-12-20T10:43:36;41.45;;;26.83;;
31224;SDS011;17847;31.524;74.366;2023-12-20T10:46:06;50.58;;;25.85;;
31224;SDS011;17847;31.524;74.366;2023-12-20T10:48:37;48.20;;;26.52;;
31224;SDS011;17847;31.524;74.366;2023-12-20T10:51:09;39.33;;;23.67;;
31224;SDS011;17847;31.524;74.366;2023-12-20T10:53:40;39.33;;;21.52;;
31224;SDS011;17847;31.524;74.366;2023-12-20T10:56:13;32.47;;;22.47;;
31224;SDS011;17847;31.524;74.366;2023-12-20T10:58:48;32.83;;;21.67;;
31224;SDS011;17847;31.524;74.366;2023-12-20T11:01:18;38.88;;;21.17;;
31224;SDS011;17847;31.524;74.366;2023-12-20T11:03:49;38.78;;;21.23;;
31224;SDS011;17847;31.524;74.366;2023-12-20T11:09:38;33.45;;;21.63;;
31224;SDS011;17847;31.524;74.366;2023-12-20T11:12:16;37.75;;;22.60;;
31224;SDS011;17847;31.524;74.366;2023-12-20T11:15:11;40.28;;;22.27;;
31224;SDS011;17847;31.524;74.366;2023-12-20T11:17:51;41.63;;;23.40;;
31224;SDS011;17847;31.524;74.366;2023-12-20T11:23:07;36.30;;;23.73;;
31224;SDS011;17847;31.524;74.366;2023-12-20T11:25:47;44.50;;;24.10;;
31224;SDS011;17847;31.524;74.366;2023-12-20T11:28:23;41.70;;;26.77;;
31224;SDS011;17847;31.524;74.366;2023-12-20T11:30:55;47.33;;;28.63;;
31224;SDS011;17847;31.524;74.366;2023-12-20T11:33:32;61.25;;;29.70;;
31224;SDS011;17847;31.524;74.366;2023-12-20T11:36:16;43.35;;;30.10;;
31224;SDS011;17847;31.524;74.366;2023-12-20T11:38:53;46.20;;;32.13;;
31224;SDS011;17847;31.524;74.366;2023-12-20T11:41:54;49.78;;;31.92;;
31224;SDS011;17847;31.524;74.366;2023-12-20T11:44:25;56.17;;;32.77;;
31224;SDS011;17847;31.524;74.366;2023-12-20T11:46:59;51.53;;;31.25;;
31224;SDS011;17847;31.524;74.366;2023-12-20T11:49:30;54.33;;;33.15;;
31224;SDS011;17847;31.524;74.366;2023-12-20T11:52:00;52.97;;;32.92;;
31224;SDS011;17847;31.524;74.366;2023-12-20T11:54:30;53.63;;;32.97;;
31224;SDS011;17847;31.524;74.366;2023-12-20T11:56:59;54.00;;;31.98;;
31224;SDS011;17847;31.524;74.366;2023-12-20T11:59:30;47.00;;;31.15;;
31224;SDS011;17847;31.524;74.366;2023-12-20T12:02:00;47.10;;;33.00;;
31224;SDS011;17847;31.524;74.366;2023-12-20T12:04:34;49.97;;;31.88;;
31224;SDS011;17847;31.524;74.366;2023-12-20T12:07:04;50.78;;;32.20;;
31224;SDS011;17847;31.524;74.366;2023-12-20T12:09:37;49.90;;;31.13;;
31224;SDS011;17847;31.524;74.366;2023-12-20T12:12:17;52.83;;;31.55;;
31224;SDS011;17847;31.524;74.366;2023-12-20T12:14:48;52.42;;;30.70;;
31224;SDS011;17847;31.524;74.366;2023-12-20T12:17:25;55.75;;;31.50;;
31224;SDS011;17847;31.524;74.366;2023-12-20T12:20:05;48.95;;;30.15;;
31224;SDS011;17847;31.524;74.366;2023-12-20T12:22:39;52.40;;;32.15;;
31224;SDS011;17847;31.524;74.366;2023-12-20T12:25:19;48.78;;;31.35;;
31224;SDS011;17847;31.524;74.366;2023-12-20T12:27:52;58.05;;;33.55;;
31224;SDS011;17847;31.524;74.366;2023-12-20T12:30:21;58.17;;;32.28;;
31224;SDS011;17847;31.524;74.366;2023-12-20T12:32:52;60.58;;;32.40;;
31224;SDS011;17847;31.524;74.366;2023-12-20T12:35:22;53.50;;;34.38;;
31224;SDS011;17847;31.524;74.366;2023-12-20T12:37:51;54.30;;;32.67;;
31224;SDS011;17847;31.524;74.366;2023-12-20T12:40:21;55.22;;;34.15;;
31224;SDS011;17847;31.524;74.366;2023-12-20T12:42:50;53.20;;;34.00;;
31224;SDS011;17847;31.524;74.366;2023-12-20T12:45:20;61.08;;;34.08;;
31224;SDS011;17847;31.524;74.366;2023-12-20T12:47:49;49.10;;;33.63;;
31224;SDS011;17847;31.524;74.366;2023-12-20T12:50:19;62.10;;;33.58;;
31224;SDS011;17847;31.524;74.366;2023-12-20T12:52:49;55.78;;;34.83;;
31224;SDS011;17847;31.524;74.366;2023-12-20T12:55:19;56.47;;;35.08;;
31224;SDS011;17847;31.524;74.366;2023-12-20T12:57:48;57.78;;;37.03;;
31224;SDS011;17847;31.524;74.366;2023-12-20T13:00:18;58.58;;;34.45;;
31224;SDS011;17847;31.524;74.366;2023-12-20T13:02:47;53.67;;;36.78;;
31224;SDS011;17847;31.524;74.366;2023-12-20T13:05:17;65.45;;;37.45;;
31224;SDS011;17847;31.524;74.366;2023-12-20T13:07:46;58.03;;;36.47;;
31224;SDS011;17847;31.524;74.366;2023-12-20T13:10:16;66.85;;;38.17;;
31224;SDS011;17847;31.524;74.366;2023-12-20T13:12:46;55.58;;;37.35;;
31224;SDS011;17847;31.524;74.366;2023-12-20T13:15:15;55.58;;;36.78;;
31224;SDS011;17847;31.524;74.366;2023-12-20T13:17:45;64.78;;;36.83;;
31224;SDS011;17847;31.524;74.366;2023-12-20T13:20:15;69.20;;;41.72;;
31224;SDS011;17847;31.524;74.366;2023-12-20T13:22:45;69.95;;;42.63;;
31224;SDS011;17847;31.524;74.366;2023-12-20T13:25:15;74.53;;;44.53;;
31224;SDS011;17847;31.524;74.366;2023-12-20T13:27:44;72.55;;;45.35;;
31224;SDS011;17847;31.524;74.366;2023-12-20T13:30:27;87.70;;;47.92;;
31224;SDS011;17847;31.524;74.366;2023-12-20T13:32:57;71.32;;;45.35;;
31224;SDS011;17847;31.524;74.366;2023-12-20T13:35:28;83.43;;;46.83;;
31224;SDS011;17847;31.524;74.366;2023-12-20T13:37:59;87.30;;;48.40;;
31224;SDS011;17847;31.524;74.366;2023-12-20T13:40:37;86.40;;;48.30;;
31224;SDS011;17847;31.524;74.366;2023-12-20T13:43:14;79.25;;;47.95;;
31224;SDS011;17847;31.524;74.366;2023-12-20T13:45:50;72.22;;;47.95;;
31224;SDS011;17847;31.524;74.366;2023-12-20T13:48:21;84.25;;;51.38;;
31224;SDS011;17847;31.524;74.366;2023-12-20T13:50:51;76.47;;;48.00;;
31224;SDS011;17847;31.524;74.366;2023-12-20T13:53:20;87.88;;;48.97;;
31224;SDS011;17847;31.524;74.366;2023-12-20T13:55:56;85.32;;;51.00;;
31224;SDS011;17847;31.524;74.366;2023-12-20T13:58:27;79.90;;;51.05;;
31224;SDS011;17847;31.524;74.366;2023-12-20T14:00:57;81.13;;;51.88;;
31224;SDS011;17847;31.524;74.366;2023-12-20T14:03:26;81.53;;;48.83;;
31224;SDS011;17847;31.524;74.366;2023-12-20T14:05:56;80.05;;;48.90;;
31224;SDS011;17847;31.524;74.366;2023-12-20T14:08:26;75.88;;;48.85;;
31224;SDS011;17847;31.524;74.366;2023-12-20T14:10:57;83.97;;;51.63;;
31224;SDS011;17847;31.524;74.366;2023-12-20T14:13:27;82.55;;;49.05;;
31224;SDS011;17847;31.524;74.366;2023-12-20T14:15:56;83.00;;;49.47;;
31224;SDS011;17847;31.524;74.366;2023-12-20T14:18:28;92.00;;;50.17;;
31224;SDS011;17847;31.524;74.366;2023-12-20T14:20:59;74.57;;;47.97;;
31224;SDS011;17847;31.524;74.366;2023-12-20T14:23:28;97.90;;;50.97;;
31224;SDS011;17847;31.524;74.366;2023-12-20T14:25:58;84.68;;;52.17;;
31224;SDS011;17847;31.524;74.366;2023-12-20T14:28:28;86.30;;;51.67;;
31224;SDS011;17847;31.524;74.366;2023-12-20T14:30:59;96.07;;;54.45;;